Time;durP1;ratioP1;P1;durP2;ratioP2;P2;SDS_P1;SDS_P2;PMS_P1;PMS_P2;Temp;Humidity;BMP_temperature;BMP_pressure;BME280_temperature;BME280_humidity;BME280_pressure;Samples;Min_cycle;Max_cycle;Signal;HPM_P1;HPM_P2
2021/04/29 00:00:19;;;;;;;11.82;9.07;;;14.30;99.90;;;;;;5063236;28;20269;-86
2021/04/29 00:02:46;;;;;;;10.38;8.25;;;14.30;99.90;;;;;;5063206;28;20210;-85
2021/04/29 00:05:15;;;;;;;9.85;8.77;;;14.30;99.90;;;;;;5096995;28;20240;-91
2021/04/29 00:07:42;;;;;;;10.20;9.18;;;14.30;99.90;;;;;;5097590;28;20198;-94
2021/04/29 00:10:11;;;;;;;13.57;8.60;;;14.40;99.90;;;;;;5080022;28;20171;-91
2021/04/29 00:12:39;;;;;;;12.93;10.55;;;14.30;99.90;;;;;;5080090;28;20197;-87
2021/04/29 00:15:09;;;;;;;11.52;9.57;;;14.30;99.90;;;;;;5097051;28;20249;-86
2021/04/29 00:17:36;;;;;;;9.80;8.77;;;14.30;99.90;;;;;;5079680;28;20285;-87
2021/04/29 00:20:04;;;;;;;10.73;9.45;;;14.20;99.90;;;;;;5079684;28;20208;-87
2021/04/29 00:22:31;;;;;;;13.80;11.07;;;14.10;99.90;;;;;;5079706;28;20192;-91
2021/04/29 00:24:58;;;;;;;12.80;9.68;;;14.10;99.90;;;;;;5060367;28;20218;-86
2021/04/29 00:27:25;;;;;;;12.85;10.00;;;14.00;99.90;;;;;;5076940;28;20202;-86
2021/04/29 00:29:52;;;;;;;16.65;10.20;;;13.90;99.90;;;;;;5079970;28;20198;-87
2021/04/29 00:32:19;;;;;;;14.05;11.07;;;13.90;99.90;;;;;;5096999;28;20225;-87
2021/04/29 00:34:45;;;;;;;13.13;11.05;;;13.90;99.90;;;;;;5079085;28;20227;-87
2021/04/29 00:37:12;;;;;;;12.82;10.73;;;13.90;99.90;;;;;;5097214;28;20189;-91
2021/04/29 00:39:38;;;;;;;13.13;11.32;;;14.00;99.90;;;;;;5079909;28;20198;-87
2021/04/29 00:42:06;;;;;;;11.23;10.13;;;14.20;99.90;;;;;;5079613;28;20212;-89
2021/04/29 00:44:32;;;;;;;14.50;10.57;;;14.10;99.90;;;;;;5096725;28;20210;-93
2021/04/29 00:47:00;;;;;;;15.98;10.60;;;14.20;99.90;;;;;;5097154;28;20171;-91
2021/04/29 00:49:27;;;;;;;12.68;10.50;;;14.10;99.90;;;;;;5074473;28;20187;-83
2021/04/29 00:51:54;;;;;;;12.07;10.27;;;13.90;99.90;;;;;;5079510;28;20665;-83
2021/04/29 00:54:21;;;;;;;17.77;11.45;;;13.70;99.90;;;;;;5079032;28;20273;-83
2021/04/29 00:56:47;;;;;;;13.70;9.63;;;13.70;99.90;;;;;;5053050;28;20194;-81
2021/04/29 00:59:14;;;;;;;11.23;9.55;;;13.60;99.90;;;;;;5080055;28;20209;-84
2021/04/29 01:01:41;;;;;;;10.52;9.38;;;13.40;99.90;;;;;;5046212;28;20617;-83
2021/04/29 01:04:15;;;;;;;11.27;9.95;;;13.40;99.90;;;;;;5066193;28;20245;-83
2021/04/29 01:06:47;;;;;;;10.65;9.63;;;13.30;99.90;;;;;;5049259;28;20225;-83
2021/04/29 01:09:21;;;;;;;13.15;10.80;;;13.40;99.90;;;;;;5074284;28;20254;-80
2021/04/29 01:11:50;;;;;;;11.93;10.77;;;13.40;99.90;;;;;;5090716;28;20206;-87
2021/04/29 01:14:18;;;;;;;12.20;11.00;;;13.10;99.90;;;;;;5058592;28;20230;-83
2021/04/29 01:16:45;;;;;;;12.30;11.10;;;13.10;99.90;;;;;;5091836;28;20199;-85
2021/04/29 01:19:17;;;;;;;12.75;11.52;;;13.20;99.90;;;;;;5091960;28;20218;-79
2021/04/29 01:21:46;;;;;;;12.07;10.77;;;13.30;99.90;;;;;;5075632;28;20183;-82
2021/04/29 01:24:16;;;;;;;15.38;11.77;;;13.10;99.90;;;;;;5053438;28;20215;-83
2021/04/29 01:26:49;;;;;;;13.07;11.70;;;13.00;99.90;;;;;;5055322;28;20191;-82
2021/04/29 01:29:20;;;;;;;12.98;11.50;;;12.80;99.90;;;;;;5058304;28;20202;-82
2021/04/29 01:31:49;;;;;;;14.13;12.60;;;12.80;99.90;;;;;;5079454;28;20191;-83
2021/04/29 01:34:19;;;;;;;13.10;11.90;;;12.90;99.90;;;;;;5045141;28;20289;-83
2021/04/29 01:36:48;;;;;;;13.95;12.57;;;12.90;99.90;;;;;;5048303;28;20218;-83
2021/04/29 01:39:17;;;;;;;13.25;12.05;;;12.90;99.90;;;;;;5083466;28;20202;-83
2021/04/29 01:41:45;;;;;;;14.10;12.65;;;12.90;99.90;;;;;;5065262;28;20198;-83
2021/04/29 01:44:15;;;;;;;14.73;13.20;;;12.90;99.90;;;;;;5065309;28;20272;-83
2021/04/29 01:46:42;;;;;;;15.43;14.00;;;12.70;99.90;;;;;;5029340;28;20678;-83
2021/04/29 01:49:22;;;;;;;14.48;13.07;;;12.80;99.90;;;;;;5054123;28;20198;-83
2021/04/29 01:51:51;;;;;;;15.45;13.95;;;12.30;99.90;;;;;;5082836;28;20193;-84
2021/04/29 01:54:18;;;;;;;15.05;13.65;;;11.90;99.90;;;;;;5064650;28;20214;-81
2021/04/29 01:56:46;;;;;;;14.32;12.80;;;12.10;99.90;;;;;;5048245;28;20205;-84
2021/04/29 01:59:24;;;;;;;15.13;13.57;;;12.20;99.90;;;;;;5050781;28;20194;-83
2021/04/29 02:01:52;;;;;;;14.40;13.00;;;12.40;99.90;;;;;;5065874;28;20206;-83
2021/04/29 02:04:19;;;;;;;14.50;13.05;;;12.50;99.90;;;;;;5065282;28;20215;-85
2021/04/29 02:06:46;;;;;;;15.90;14.40;;;12.60;99.90;;;;;;5063827;28;20206;-85
2021/04/29 02:09:14;;;;;;;14.50;13.10;;;12.50;99.90;;;;;;5064426;28;20198;-84
2021/04/29 02:11:46;;;;;;;15.18;13.82;;;12.40;99.90;;;;;;5081694;28;20198;-84
2021/04/29 02:14:14;;;;;;;14.68;12.75;;;12.40;99.90;;;;;;5066171;22;20707;-78
2021/04/29 02:16:44;;;;;;;16.13;14.07;;;12.30;99.90;;;;;;5011906;28;20220;-78
2021/04/29 02:19:13;;;;;;;14.10;12.80;;;12.30;99.90;;;;;;5022182;28;20394;-78
2021/04/29 02:21:43;;;;;;;15.98;13.13;;;12.30;99.90;;;;;;5014969;28;20192;-79
2021/04/29 02:24:11;;;;;;;16.00;14.65;;;12.30;99.90;;;;;;5032346;28;20247;-78
2021/04/29 02:26:38;;;;;;;14.32;13.07;;;12.30;99.90;;;;;;5032953;28;20199;-79
2021/04/29 02:29:06;;;;;;;15.48;14.10;;;12.30;99.90;;;;;;5014965;28;20192;-79
2021/04/29 02:31:34;;;;;;;16.52;14.82;;;12.40;99.90;;;;;;5032364;28;20206;-78
2021/04/29 02:34:03;;;;;;;16.05;14.65;;;12.40;99.90;;;;;;5032256;28;20219;-78
2021/04/29 02:36:30;;;;;;;16.42;14.93;;;12.40;99.90;;;;;;5015188;28;20192;-80
2021/04/29 02:38:57;;;;;;;17.52;13.48;;;12.50;99.90;;;;;;5032775;28;20291;-79
2021/04/29 02:41:25;;;;;;;15.27;13.77;;;12.40;99.90;;;;;;5031899;28;20258;-79
2021/04/29 02:43:52;;;;;;;15.02;13.73;;;12.40;99.90;;;;;;5031812;28;20230;-78
2021/04/29 02:46:20;;;;;;;14.98;13.57;;;12.50;99.90;;;;;;5032102;28;20694;-79
2021/04/29 02:48:46;;;;;;;15.52;13.00;;;12.50;99.90;;;;;;5032324;28;20196;-78
2021/04/29 02:51:14;;;;;;;14.43;13.02;;;12.50;99.90;;;;;;5031487;28;20199;-79
2021/04/29 02:53:42;;;;;;;15.10;13.70;;;12.50;99.90;;;;;;5031727;28;20207;-79
2021/04/29 02:56:09;;;;;;;15.80;14.38;;;12.40;99.90;;;;;;5014584;28;20207;-78
2021/04/29 02:58:42;;;;;;;14.80;13.30;;;12.40;99.90;;;;;;5031970;28;20227;-79
2021/04/29 03:01:11;;;;;;;17.70;15.90;;;12.20;99.90;;;;;;5014669;28;20192;-78
2021/04/29 03:03:37;;;;;;;15.85;14.35;;;12.10;99.90;;;;;;5031128;28;20211;-77
2021/04/29 03:06:05;;;;;;;15.68;14.27;;;11.90;99.90;;;;;;5031285;28;20200;-78
2021/04/29 03:08:32;;;;;;;17.17;15.38;;;11.90;99.90;;;;;;5029485;28;20195;-78
2021/04/29 03:10:59;;;;;;;18.13;16.23;;;11.60;99.90;;;;;;5013936;28;20283;-78
2021/04/29 03:13:26;;;;;;;17.92;16.02;;;11.50;99.90;;;;;;5013780;28;20203;-79
2021/04/29 03:15:52;;;;;;;19.33;16.60;;;11.40;99.90;;;;;;5030668;28;20208;-79
2021/04/29 03:18:19;;;;;;;21.13;19.08;;;11.30;99.90;;;;;;5030472;28;20243;-79
2021/04/29 03:20:46;;;;;;;21.05;18.90;;;11.30;99.90;;;;;;5031275;28;20196;-78
2021/04/29 03:23:14;;;;;;;20.77;18.67;;;11.30;99.90;;;;;;5013368;28;20280;-77
2021/04/29 03:25:43;;;;;;;23.88;21.27;;;11.30;99.90;;;;;;5013239;28;20258;-78
2021/04/29 03:28:10;;;;;;;28.63;25.58;;;11.20;99.90;;;;;;5030943;28;20192;-78
2021/04/29 03:30:36;;;;;;;22.92;20.58;;;11.10;99.90;;;;;;5013464;28;20187;-77
2021/04/29 03:33:05;;;;;;;22.75;20.45;;;11.00;99.90;;;;;;5030994;28;20722;-79
2021/04/29 03:35:33;;;;;;;24.58;22.08;;;11.10;99.90;;;;;;5013504;28;20763;-79
2021/04/29 03:38:05;;;;;;;25.42;22.73;;;11.10;99.90;;;;;;5031337;28;20188;-78
2021/04/29 03:40:31;;;;;;;24.33;21.88;;;11.20;99.90;;;;;;5031172;28;20282;-78
2021/04/29 03:42:59;;;;;;;28.85;25.95;;;11.00;99.90;;;;;;4996911;28;20200;-78
2021/04/29 03:45:25;;;;;;;29.73;26.83;;;11.00;99.90;;;;;;5030689;28;20769;-77
2021/04/29 03:47:52;;;;;;;25.80;23.20;;;11.00;99.90;;;;;;5031113;28;20770;-77
2021/04/29 03:50:19;;;;;;;26.92;24.23;;;11.10;99.90;;;;;;5031140;28;20295;-78
2021/04/29 03:52:46;;;;;;;27.48;24.83;;;11.10;99.90;;;;;;5014717;28;20315;-78
2021/04/29 03:55:13;;;;;;;25.17;22.67;;;11.00;99.90;;;;;;5038313;28;20207;-79
2021/04/29 03:57:40;;;;;;;27.30;24.50;;;11.00;99.90;;;;;;5031230;28;20566;-79
2021/04/29 04:00:09;;;;;;;27.27;24.58;;;10.90;99.90;;;;;;5032556;28;20766;-78
2021/04/29 04:02:36;;;;;;;26.90;24.13;;;11.00;99.90;;;;;;5031882;28;20208;-79
2021/04/29 04:05:03;;;;;;;27.52;24.92;;;11.10;99.90;;;;;;5032517;28;20582;-78
2021/04/29 04:07:29;;;;;;;29.90;26.98;;;11.00;99.90;;;;;;5032657;28;20701;-79
2021/04/29 04:09:56;;;;;;;27.75;24.73;;;10.90;99.90;;;;;;5002953;28;20208;-79
2021/04/29 04:12:22;;;;;;;26.77;24.27;;;10.90;99.90;;;;;;5024827;28;20200;-78
2021/04/29 04:14:49;;;;;;;27.90;25.40;;;10.90;99.90;;;;;;5013957;28;20212;-78
2021/04/29 04:17:17;;;;;;;26.48;24.00;;;11.00;99.90;;;;;;5031950;28;20207;-79
2021/04/29 04:19:43;;;;;;;27.35;24.42;;;11.00;99.90;;;;;;5034092;28;20223;-79
2021/04/29 04:22:10;;;;;;;26.08;23.30;;;10.90;99.90;;;;;;5034616;28;20223;-80
2021/04/29 04:24:37;;;;;;;26.83;24.38;;;11.00;99.90;;;;;;5034605;28;20295;-80
2021/04/29 04:27:04;;;;;;;25.85;23.35;;;11.20;99.90;;;;;;5035310;28;20228;-79
2021/04/29 04:29:31;;;;;;;25.00;21.98;;;11.40;99.90;;;;;;5036217;28;20196;-81
2021/04/29 04:31:57;;;;;;;24.67;22.38;;;11.60;99.90;;;;;;5037854;28;20188;-81
2021/04/29 04:34:28;;;;;;;23.90;21.70;;;11.60;99.90;;;;;;5050037;28;20204;-80
2021/04/29 04:36:55;;;;;;;23.98;21.60;;;11.80;99.90;;;;;;5017856;28;20199;-79
2021/04/29 04:39:22;;;;;;;23.27;21.02;;;11.70;99.90;;;;;;5036235;28;20188;-80
2021/04/29 04:41:49;;;;;;;25.05;22.55;;;11.70;99.90;;;;;;5027894;28;20801;-79
2021/04/29 04:44:15;;;;;;;22.42;20.40;;;11.80;99.90;;;;;;5016104;28;20453;-79
2021/04/29 04:46:42;;;;;;;22.00;20.00;;;11.80;99.90;;;;;;5034135;28;20694;-79
2021/04/29 04:49:08;;;;;;;21.55;19.45;;;11.80;99.90;;;;;;5034328;28;20266;-81
2021/04/29 04:51:36;;;;;;;23.27;20.98;;;11.80;99.90;;;;;;5033087;28;20196;-81
2021/04/29 04:54:03;;;;;;;22.42;20.33;;;11.80;99.90;;;;;;5033631;28;20216;-79
2021/04/29 04:56:30;;;;;;;22.23;20.00;;;11.80;99.90;;;;;;5033343;28;20267;-79
2021/04/29 04:58:57;;;;;;;22.45;20.40;;;11.90;99.90;;;;;;5033810;28;20558;-81
2021/04/29 05:01:26;;;;;;;23.98;21.30;;;11.80;99.90;;;;;;5030649;28;20250;-79
2021/04/29 05:03:54;;;;;;;24.15;21.55;;;11.80;99.90;;;;;;5012044;28;20333;-80
2021/04/29 05:06:21;;;;;;;23.60;21.20;;;11.80;99.90;;;;;;5030325;28;20222;-80
2021/04/29 05:08:48;;;;;;;22.88;20.88;;;11.80;99.90;;;;;;5030251;28;20263;-79
2021/04/29 05:11:15;;;;;;;22.95;20.73;;;12.00;99.90;;;;;;5033250;28;20607;-78
2021/04/29 05:13:42;;;;;;;24.35;21.92;;;11.90;99.90;;;;;;5012797;28;20359;-78
2021/04/29 05:16:09;;;;;;;24.33;21.83;;;11.90;99.90;;;;;;5028988;28;20776;-78
2021/04/29 05:18:35;;;;;;;24.70;22.30;;;12.00;99.90;;;;;;5014498;28;20196;-79
2021/04/29 05:21:02;;;;;;;24.48;22.17;;;12.00;99.90;;;;;;5033423;28;20192;-79
2021/04/29 05:23:29;;;;;;;24.02;21.75;;;12.10;99.90;;;;;;5011814;28;20206;-78
2021/04/29 05:25:56;;;;;;;23.70;21.42;;;12.00;99.90;;;;;;5033621;28;20208;-79
2021/04/29 05:28:23;;;;;;;24.48;22.25;;;12.00;99.90;;;;;;5032096;28;20216;-78
2021/04/29 05:30:50;;;;;;;24.67;22.38;;;12.00;99.90;;;;;;5022288;28;20210;-78
2021/04/29 05:33:17;;;;;;;21.42;19.35;;;12.00;99.90;;;;;;5034137;28;20695;-78
2021/04/29 05:35:43;;;;;;;25.70;22.17;;;12.00;99.90;;;;;;5029768;28;20216;-79
2021/04/29 05:38:10;;;;;;;23.98;21.48;;;12.00;99.90;;;;;;5022228;28;20232;-78
2021/04/29 05:40:37;;;;;;;26.98;24.38;;;12.00;99.90;;;;;;5033498;28;20360;-79
2021/04/29 05:43:04;;;;;;;26.95;24.38;;;12.10;99.90;;;;;;5028236;28;20222;-80
2021/04/29 05:45:30;;;;;;;22.45;20.38;;;12.10;99.90;;;;;;5025788;28;20231;-79
2021/04/29 05:47:57;;;;;;;23.38;21.17;;;12.10;99.90;;;;;;5045519;28;20294;-78
2021/04/29 05:50:23;;;;;;;24.58;22.17;;;12.20;99.90;;;;;;5049611;28;20200;-79
2021/04/29 05:52:50;;;;;;;25.05;22.60;;;12.10;99.90;;;;;;5054104;28;20188;-80
2021/04/29 05:55:16;;;;;;;24.08;21.60;;;12.10;99.90;;;;;;5054339;28;20216;-78
2021/04/29 05:57:46;;;;;;;23.58;21.17;;;12.10;99.90;;;;;;5053853;28;20242;-80
2021/04/29 06:00:15;;;;;;;23.70;21.38;;;12.10;99.90;;;;;;5036804;28;20220;-79
2021/04/29 06:02:42;;;;;;;24.25;21.48;;;12.10;99.90;;;;;;5033590;28;20196;-78
2021/04/29 06:05:10;;;;;;;24.65;22.23;;;12.10;99.90;;;;;;5033955;28;20280;-79
2021/04/29 06:07:36;;;;;;;24.98;22.58;;;12.10;99.90;;;;;;5033821;28;20207;-80
2021/04/29 06:10:03;;;;;;;23.38;21.25;;;12.10;99.90;;;;;;5034284;28;20204;-79
2021/04/29 06:12:30;;;;;;;23.02;20.70;;;12.10;99.90;;;;;;5032519;28;20204;-79
2021/04/29 06:14:57;;;;;;;23.33;20.90;;;12.20;99.90;;;;;;5014378;28;20301;-79
2021/04/29 06:17:24;;;;;;;24.67;22.15;;;12.20;99.90;;;;;;5032634;28;20271;-79
2021/04/29 06:19:51;;;;;;;22.35;20.23;;;12.20;99.90;;;;;;5032437;28;20211;-79
2021/04/29 06:22:18;;;;;;;24.08;21.77;;;12.10;99.90;;;;;;5014242;28;20192;-79
2021/04/29 06:24:45;;;;;;;35.08;31.45;;;12.10;99.90;;;;;;5032271;28;20335;-78
2021/04/29 06:27:11;;;;;;;27.73;24.92;;;12.00;99.90;;;;;;5014972;28;20196;-79
2021/04/29 06:29:38;;;;;;;31.05;27.90;;;12.00;99.90;;;;;;5032385;28;20701;-78
2021/04/29 06:32:05;;;;;;;30.58;27.75;;;12.00;99.90;;;;;;5031631;28;20204;-78
2021/04/29 06:34:32;;;;;;;29.83;26.95;;;11.90;99.90;;;;;;5032312;28;20208;-80
2021/04/29 06:37:00;;;;;;;31.88;28.60;;;11.90;99.90;;;;;;5000475;28;20200;-78
2021/04/29 06:39:27;;;;;;;33.75;30.65;;;11.90;99.90;;;;;;5035164;28;20196;-79
2021/04/29 06:41:53;;;;;;;35.70;32.28;;;11.90;99.90;;;;;;5034101;28;20223;-79
2021/04/29 06:44:20;;;;;;;35.50;32.17;;;11.90;99.90;;;;;;5031854;28;20445;-79
2021/04/29 06:46:46;;;;;;;33.03;29.92;;;12.00;99.90;;;;;;5035445;28;20798;-79
2021/04/29 06:49:13;;;;;;;33.50;29.92;;;11.80;99.90;;;;;;5036128;28;20283;-80
2021/04/29 06:51:41;;;;;;;37.85;34.13;;;11.90;99.90;;;;;;5035068;28;20279;-80
2021/04/29 06:54:08;;;;;;;35.58;31.88;;;11.90;99.90;;;;;;5033692;28;20215;-79
2021/04/29 06:56:35;;;;;;;34.42;31.13;;;11.80;99.90;;;;;;5019404;28;20215;-79
2021/04/29 06:59:02;;;;;;;35.15;31.52;;;11.80;99.90;;;;;;5035674;28;20207;-79
2021/04/29 07:01:28;;;;;;;33.45;29.92;;;11.80;99.90;;;;;;5034769;28;20204;-78
2021/04/29 07:03:56;;;;;;;29.63;26.52;;;11.70;99.90;;;;;;5034365;28;20228;-80
2021/04/29 07:06:23;;;;;;;31.65;28.40;;;11.70;99.90;;;;;;5035967;28;20691;-79
2021/04/29 07:08:51;;;;;;;30.48;27.35;;;11.60;99.90;;;;;;5036972;28;20259;-80
2021/04/29 07:11:18;;;;;;;29.20;26.30;;;11.60;99.90;;;;;;5039237;28;20203;-80
2021/04/29 07:13:45;;;;;;;28.77;25.83;;;11.60;99.90;;;;;;5038913;28;20977;-80
2021/04/29 07:16:11;;;;;;;30.80;27.58;;;11.50;99.90;;;;;;5005249;28;20230;-78
2021/04/29 07:18:38;;;;;;;30.48;27.65;;;11.60;99.90;;;;;;5039429;28;20212;-79
2021/04/29 07:21:05;;;;;;;29.73;27.17;;;11.60;99.90;;;;;;5036764;28;20193;-80
2021/04/29 07:23:32;;;;;;;31.30;28.00;;;11.60;99.90;;;;;;5035499;28;20184;-80
2021/04/29 07:25:59;;;;;;;29.83;26.73;;;11.70;99.90;;;;;;5037752;28;20216;-80
2021/04/29 07:28:27;;;;;;;29.17;26.20;;;11.70;99.90;;;;;;5039428;28;20270;-79
2021/04/29 07:30:54;;;;;;;27.98;25.30;;;11.70;99.90;;;;;;5038577;28;20196;-80
2021/04/29 07:33:21;;;;;;;27.95;25.23;;;11.60;99.90;;;;;;5040411;28;20203;-79
2021/04/29 07:35:48;;;;;;;31.05;28.08;;;11.50;99.90;;;;;;5022277;28;20224;-80
2021/04/29 07:38:15;;;;;;;29.55;26.50;;;11.50;99.90;;;;;;5039259;28;20200;-80
2021/04/29 07:40:42;;;;;;;29.77;27.00;;;11.60;99.90;;;;;;5020368;28;20601;-81
2021/04/29 07:43:09;;;;;;;29.17;26.27;;;11.40;99.90;;;;;;5038328;28;20754;-79
2021/04/29 07:45:37;;;;;;;29.05;26.15;;;11.30;99.90;;;;;;5037667;28;20751;-80
2021/04/29 07:48:04;;;;;;;29.75;26.80;;;11.30;99.90;;;;;;5036616;28;20271;-80
2021/04/29 07:50:32;;;;;;;29.80;26.95;;;11.30;99.90;;;;;;5036817;28;20192;-80
2021/04/29 07:52:58;;;;;;;28.55;25.65;;;11.30;99.90;;;;;;5037832;28;20214;-80
2021/04/29 07:55:26;;;;;;;29.33;26.52;;;11.40;99.90;;;;;;5019745;28;20215;-80
2021/04/29 07:57:52;;;;;;;32.75;29.60;;;11.40;99.90;;;;;;5038199;28;20200;-80
2021/04/29 08:00:21;;;;;;;30.10;27.10;;;11.40;99.90;;;;;;5039244;28;20212;-79
2021/04/29 08:02:49;;;;;;;29.90;26.80;;;11.40;99.90;;;;;;5037382;28;20199;-78
2021/04/29 08:05:16;;;;;;;30.42;27.63;;;11.40;99.90;;;;;;5036376;28;20212;-78
2021/04/29 08:07:46;;;;;;;29.02;26.17;;;11.40;99.90;;;;;;5037368;28;20288;-80
2021/04/29 08:10:14;;;;;;;29.52;26.70;;;11.50;99.90;;;;;;5037935;28;20271;-81
2021/04/29 08:12:41;;;;;;;27.52;24.58;;;11.50;99.90;;;;;;5039920;28;20188;-81
2021/04/29 08:15:09;;;;;;;27.42;24.83;;;11.60;99.90;;;;;;5053923;22;20224;-37
2021/04/29 08:17:37;;;;;;;28.15;25.38;;;11.50;99.90;;;;;;5037848;28;20198;-37
2021/04/29 08:20:05;;;;;;;28.00;25.30;;;11.60;99.90;;;;;;5049483;28;20208;-37
2021/04/29 08:22:32;;;;;;;26.90;24.20;;;11.70;99.90;;;;;;5044391;28;20283;-36
2021/04/29 08:24:58;;;;;;;26.88;24.30;;;11.70;99.90;;;;;;5050856;28;20314;-36
2021/04/29 08:27:26;;;;;;;25.13;22.83;;;11.80;99.90;;;;;;5045339;28;20195;-36
2021/04/29 08:29:52;;;;;;;24.90;22.63;;;11.80;99.90;;;;;;5052665;22;20425;-38
2021/04/29 08:32:19;;;;;;;26.08;23.67;;;11.70;99.90;;;;;;5036713;28;20192;-38
2021/04/29 08:34:47;;;;;;;26.13;23.73;;;11.70;99.90;;;;;;5028391;28;20187;-37
2021/04/29 08:37:14;;;;;;;42.75;38.38;;;11.80;99.90;;;;;;5031343;28;20250;-37
2021/04/29 08:39:40;;;;;;;26.70;24.17;;;11.80;99.90;;;;;;5044941;28;20713;-37
2021/04/29 08:42:08;;;;;;;24.08;21.90;;;11.80;99.90;;;;;;5048431;28;20223;-38
2021/04/29 08:44:35;;;;;;;24.60;22.20;;;12.00;99.90;;;;;;5050244;28;20210;-37
2021/04/29 08:47:01;;;;;;;24.90;22.65;;;12.30;99.90;;;;;;5053236;28;20194;-38
2021/04/29 08:49:29;;;;;;;24.95;22.63;;;12.50;99.90;;;;;;5053162;28;20215;-37
2021/04/29 08:51:57;;;;;;;24.83;22.52;;;12.60;99.90;;;;;;5053427;28;20195;-38
2021/04/29 08:54:24;;;;;;;22.63;20.52;;;12.90;99.90;;;;;;5052788;28;20199;-37
2021/04/29 08:56:53;;;;;;;22.48;20.27;;;12.90;99.90;;;;;;5052663;28;20223;-39
2021/04/29 08:59:20;;;;;;;26.60;24.05;;;13.00;99.90;;;;;;5052612;28;20234;-38
2021/04/29 09:01:47;;;;;;;23.60;21.30;;;13.10;99.90;;;;;;5052326;28;20196;-38
2021/04/29 09:04:15;;;;;;;21.02;19.05;;;13.20;99.90;;;;;;5051678;28;20302;-38
2021/04/29 09:06:44;;;;;;;17.70;16.00;;;13.30;99.90;;;;;;5052319;28;20294;-38
2021/04/29 09:09:13;;;;;;;18.05;16.35;;;13.30;99.90;;;;;;5052220;28;20238;-38
2021/04/29 09:11:53;;;;;;;18.55;16.85;;;13.10;99.90;;;;;;5051535;28;20213;-38
2021/04/29 09:14:30;;;;;;;17.40;15.90;;;12.80;99.90;;;;;;5051795;28;20203;-37
2021/04/29 09:16:57;;;;;;;16.60;15.05;;;12.80;99.90;;;;;;5052300;28;20203;-38
2021/04/29 09:19:26;;;;;;;18.40;16.90;;;12.80;99.90;;;;;;5051432;28;20212;-38
2021/04/29 09:21:53;;;;;;;20.17;18.38;;;12.90;99.90;;;;;;5048732;28;20211;-38
2021/04/29 09:24:32;;;;;;;19.17;17.50;;;12.70;99.90;;;;;;5049129;28;20261;-39
2021/04/29 09:27:10;;;;;;;20.25;18.38;;;12.80;99.90;;;;;;5050328;28;20202;-37
2021/04/29 09:29:53;;;;;;;18.73;17.13;;;12.70;99.90;;;;;;5049566;28;20797;-38
2021/04/29 09:32:24;;;;;;;21.08;19.10;;;13.00;99.90;;;;;;5051237;28;20202;-37
2021/04/29 09:34:51;;;;;;;20.80;18.83;;;13.00;99.90;;;;;;5051152;28;20273;-36
2021/04/29 09:37:29;;;;;;;20.50;18.67;;;13.10;99.90;;;;;;5050923;28;20219;-39
2021/04/29 09:39:57;;;;;;;22.58;20.38;;;13.30;99.90;;;;;;5054946;28;20222;-37
2021/04/29 09:42:29;;;;;;;27.80;24.88;;;13.30;99.90;;;;;;5032532;28;20263;-37
2021/04/29 09:44:56;;;;;;;22.95;20.55;;;13.40;99.90;;;;;;5039096;28;20302;-37
2021/04/29 09:47:22;;;;;;;25.10;22.73;;;13.40;99.90;;;;;;5051662;28;20290;-37
2021/04/29 09:49:49;;;;;;;22.80;20.80;;;13.40;99.90;;;;;;5053295;28;20288;-38
2021/04/29 09:52:18;;;;;;;23.65;21.45;;;13.50;99.90;;;;;;5071949;28;20669;-37
2021/04/29 09:54:46;;;;;;;23.80;21.67;;;13.60;99.90;;;;;;5061874;28;20675;-38
2021/04/29 09:57:17;;;;;;;23.48;21.33;;;13.60;99.90;;;;;;5050540;28;20278;-37
2021/04/29 09:59:46;;;;;;;24.08;21.63;;;13.60;99.90;;;;;;5051473;28;20219;-38
2021/04/29 10:02:14;;;;;;;24.05;21.85;;;13.30;99.90;;;;;;5050578;28;20291;-36
2021/04/29 10:04:42;;;;;;;25.88;23.42;;;13.30;99.90;;;;;;5047830;28;20711;-38
2021/04/29 10:07:10;;;;;;;25.63;23.33;;;13.10;99.90;;;;;;5051209;28;20885;-37
2021/04/29 10:09:39;;;;;;;25.20;22.80;;;13.00;99.90;;;;;;5065371;28;20259;-37
2021/04/29 10:12:09;;;;;;;26.50;24.02;;;13.00;99.90;;;;;;5070442;28;20275;-38
2021/04/29 10:14:41;;;;;;;28.25;25.65;;;13.00;99.90;;;;;;5051441;28;20203;-38
2021/04/29 10:17:09;;;;;;;28.45;25.70;;;13.20;99.90;;;;;;5052091;28;20207;-38
2021/04/29 10:19:39;;;;;;;30.63;27.55;;;13.30;99.90;;;;;;5071988;28;20309;-38
2021/04/29 10:22:07;;;;;;;26.83;24.48;;;13.50;99.90;;;;;;5063024;28;20733;-37
2021/04/29 10:24:35;;;;;;;26.80;24.40;;;13.90;99.90;;;;;;5050702;28;20237;-37
2021/04/29 10:27:03;;;;;;;24.88;22.58;;;14.20;99.90;;;;;;5051649;28;20553;-36
2021/04/29 10:29:30;;;;;;;25.98;23.67;;;14.50;99.90;;;;;;5051170;28;20215;-37
2021/04/29 10:32:00;;;;;;;25.73;23.42;;;15.00;99.90;;;;;;5056909;28;20195;-39
2021/04/29 10:34:37;;;;;;;27.30;24.90;;;15.30;99.90;;;;;;5056898;28;20203;-37
2021/04/29 10:37:15;;;;;;;26.20;23.67;;;15.50;99.90;;;;;;5059729;28;20199;-38
2021/04/29 10:39:51;;;;;;;23.63;21.33;;;15.80;99.90;;;;;;5050347;28;20230;-38
2021/04/29 10:42:19;;;;;;;24.23;21.88;;;16.00;99.90;;;;;;5051400;28;20205;-37
2021/04/29 10:44:47;;;;;;;23.50;21.35;;;16.20;99.90;;;;;;5051276;28;20267;-37
2021/04/29 10:47:27;;;;;;;24.40;22.17;;;16.30;99.90;;;;;;5050697;28;20580;-37
2021/04/29 10:50:06;;;;;;;21.50;19.40;;;16.50;99.90;;;;;;5064505;28;20735;-37
2021/04/29 10:52:33;;;;;;;23.35;21.17;;;16.60;99.90;;;;;;5069581;28;20190;-39
2021/04/29 10:55:00;;;;;;;21.50;19.55;;;16.40;99.90;;;;;;5050522;28;20223;-36
2021/04/29 10:57:27;;;;;;;23.58;21.05;;;16.60;99.90;;;;;;5062581;28;20207;-37
2021/04/29 10:59:55;;;;;;;21.60;19.60;;;16.90;99.90;;;;;;5062053;28;20626;-38
2021/04/29 11:02:25;;;;;;;23.55;21.45;;;17.20;99.90;;;;;;5051976;28;20218;-37
2021/04/29 11:04:52;;;;;;;27.23;24.45;;;17.50;99.90;;;;;;5054313;28;20222;-38
2021/04/29 11:07:20;;;;;;;22.70;20.70;;;17.70;99.90;;;;;;5071504;28;20198;-38
2021/04/29 11:10:02;;;;;;;22.50;20.30;;;17.60;99.90;;;;;;5071323;28;20679;-37
2021/04/29 11:12:45;;;;;;;21.00;19.05;;;17.70;99.90;;;;;;5056541;28;20203;-37
2021/04/29 11:15:24;;;;;;;20.92;19.13;;;18.10;99.90;;;;;;5044157;28;20183;-38
2021/04/29 11:18:08;;;;;;;19.35;17.17;;;18.40;99.90;;;;;;5050683;28;20221;-39
2021/04/29 11:20:47;;;;;;;20.95;18.75;;;17.80;99.90;;;;;;5048984;28;20674;-38
2021/04/29 11:23:15;;;;;;;17.85;16.23;;;17.40;99.90;;;;;;5050301;28;20195;-39
2021/04/29 11:25:42;;;;;;;20.33;17.65;;;17.00;99.90;;;;;;5049694;28;20231;-38
2021/04/29 11:28:10;;;;;;;20.25;18.55;;;16.70;99.90;;;;;;5050258;28;20219;-38
2021/04/29 11:30:39;;;;;;;19.10;17.30;;;16.40;99.90;;;;;;5048396;28;20203;-36
2021/04/29 11:33:10;;;;;;;20.83;18.73;;;16.10;99.90;;;;;;5050239;28;20191;-37
2021/04/29 11:35:39;;;;;;;19.48;17.63;;;15.80;99.90;;;;;;5049594;28;20655;-37
2021/04/29 11:38:08;;;;;;;25.52;23.05;;;15.40;99.90;;;;;;5049506;28;20619;-37
2021/04/29 11:40:36;;;;;;;24.65;22.40;;;15.20;99.90;;;;;;5049730;28;20681;-37
2021/04/29 11:43:05;;;;;;;19.67;17.85;;;14.90;99.90;;;;;;5059455;28;20591;-38
2021/04/29 11:45:33;;;;;;;19.02;17.02;;;14.20;99.90;;;;;;5065034;28;20485;-40
2021/04/29 11:48:03;;;;;;;19.67;17.70;;;13.80;99.90;;;;;;5051359;28;20290;-40
2021/04/29 11:50:33;;;;;;;19.95;18.13;;;13.90;99.90;;;;;;5052431;28;20682;-39
2021/04/29 11:53:08;;;;;;;20.13;18.23;;;14.20;99.90;;;;;;5049652;28;20203;-39
2021/04/29 11:55:36;;;;;;;19.55;17.73;;;14.70;99.90;;;;;;5049190;28;20195;-40
2021/04/29 11:58:05;;;;;;;20.42;18.30;;;15.50;99.90;;;;;;5049084;28;20249;-41
2021/04/29 12:00:35;;;;;;;23.40;21.08;;;16.70;99.90;;;;;;5048353;28;20249;-40
2021/04/29 12:03:03;;;;;;;21.30;19.30;;;17.60;99.90;;;;;;5046697;28;20255;-39
2021/04/29 12:05:32;;;;;;;22.13;20.10;;;17.60;99.90;;;;;;5056925;28;20218;-38
2021/04/29 12:08:00;;;;;;;21.85;19.85;;;17.30;99.90;;;;;;5056274;28;20253;-39
2021/04/29 12:10:42;;;;;;;21.85;19.55;;;17.00;99.90;;;;;;5054709;28;20602;-40
2021/04/29 12:13:10;;;;;;;21.70;19.60;;;16.60;99.90;;;;;;5056449;28;20269;-40
2021/04/29 12:15:37;;;;;;;20.45;18.65;;;16.40;99.90;;;;;;5058334;28;20274;-41
2021/04/29 12:18:04;;;;;;;20.65;18.52;;;16.60;99.90;;;;;;5056893;28;20241;-41
2021/04/29 12:20:32;;;;;;;20.77;18.88;;;16.70;99.90;;;;;;5048419;28;20665;-40
2021/04/29 12:22:59;;;;;;;23.35;18.70;;;16.90;99.90;;;;;;5049499;28;20294;-38
2021/04/29 12:25:26;;;;;;;24.63;22.25;;;17.10;99.90;;;;;;5048502;28;20211;-39
2021/04/29 12:27:53;;;;;;;24.55;22.05;;;17.60;99.90;;;;;;5049212;28;20195;-40
2021/04/29 12:30:26;;;;;;;26.23;23.42;;;17.50;99.90;;;;;;5048178;28;20291;-40
2021/04/29 12:32:53;;;;;;;24.52;22.00;;;17.50;99.90;;;;;;5048997;28;20199;-42